createdAt,value
2019-04-07T00:00:27.738Z,28.90
2019-04-07T00:03:00.225Z,29.03
2019-04-07T00:05:33.486Z,29.03
2019-04-07T00:08:05.755Z,28.33
2019-04-07T00:10:37.937Z,26.47
2019-04-07T00:13:10.695Z,28.03
2019-04-07T00:15:43.273Z,30.07
2019-04-07T00:18:15.576Z,31.90
2019-04-07T00:20:47.547Z,27.67
2019-04-07T00:23:20.052Z,33.37
2019-04-07T00:25:52.106Z,26.23
2019-04-07T00:28:24.386Z,26.67
2019-04-07T00:30:56.426Z,27.47
2019-04-07T00:33:28.476Z,28.77
2019-04-07T00:36:00.878Z,27.33
2019-04-07T00:38:33.201Z,30.97
2019-04-07T00:41:05.681Z,28.80
2019-04-07T00:43:37.998Z,26.33
2019-04-07T00:46:09.881Z,26.87
2019-04-07T00:48:42.343Z,28.23
2019-04-07T00:51:14.606Z,29.03
2019-04-07T00:53:46.558Z,25.63
2019-04-07T00:56:19.237Z,27.93
2019-04-07T00:58:51.587Z,30.17
2019-04-07T01:01:24.445Z,29.53
2019-04-07T01:03:56.838Z,27.33
2019-04-07T01:06:29.471Z,30.73
2019-04-07T01:09:01.811Z,27.70
2019-04-07T01:11:35.568Z,25.63
2019-04-07T01:14:08.211Z,26.93
2019-04-07T01:16:40.737Z,26.77
2019-04-07T01:19:13.373Z,27.97
2019-04-07T01:21:45.765Z,30.27
2019-04-07T01:24:17.834Z,25.33
2019-04-07T01:26:49.976Z,31.33
2019-04-07T01:29:21.986Z,24.60
2019-04-07T01:31:53.886Z,32.53
2019-04-07T01:34:26.243Z,31.60
2019-04-07T01:36:58.454Z,29.27
2019-04-07T01:39:30.786Z,26.47
2019-04-07T01:42:18.247Z,25.70
2019-04-07T01:45:10.520Z,31.23
2019-04-07T01:47:48.809Z,27.83
2019-04-07T01:50:51.807Z,27.20
2019-04-07T01:53:46.896Z,26.07
2019-04-07T01:56:38.412Z,28.13
2019-04-07T01:59:33.256Z,22.00
2019-04-07T02:02:29.100Z,24.47
2019-04-07T02:05:10.856Z,26.37
2019-04-07T02:08:09.345Z,25.17
2019-04-07T02:10:59.116Z,25.50
2019-04-07T02:13:57.101Z,31.00
2019-04-07T02:16:43.191Z,30.67
2019-04-07T02:19:32.777Z,24.00
2019-04-07T02:22:23.849Z,22.53
2019-04-07T02:25:06.506Z,26.77
2019-04-07T02:27:44.816Z,29.93
2019-04-07T02:30:46.369Z,24.00
2019-04-07T02:33:47.006Z,26.93
2019-04-07T02:36:31.351Z,23.93
2019-04-07T02:39:34.675Z,28.93
2019-04-07T02:42:34.776Z,34.70
2019-04-07T02:45:26.968Z,23.13
2019-04-07T02:48:18.256Z,27.03
2019-04-07T02:51:05.643Z,28.00
2019-04-07T02:54:09.426Z,30.10
2019-04-07T02:56:52.211Z,24.20
2019-04-07T02:59:31.182Z,23.30
2019-04-07T03:02:20.996Z,30.10
2019-04-07T03:05:15.714Z,30.20
2019-04-07T03:08:08.644Z,28.57
2019-04-07T03:11:05.607Z,26.20
2019-04-07T03:13:54.284Z,28.00
2019-04-07T03:16:52.329Z,25.03
2019-04-07T03:19:43.340Z,26.00
2019-04-07T03:22:35.237Z,27.63
2019-04-07T03:25:29.362Z,29.70
2019-04-07T03:28:08.760Z,26.80
2019-04-07T03:30:54.712Z,27.70
2019-04-07T03:33:48.069Z,29.17
2019-04-07T03:36:29.951Z,27.00
2019-04-07T03:39:20.440Z,28.57
2019-04-07T03:42:14.569Z,29.63
2019-04-07T03:45:01.661Z,24.53
2019-04-07T03:47:41.997Z,27.47
2019-04-07T03:50:18.846Z,23.73
2019-04-07T03:53:08.237Z,28.47
2019-04-07T03:55:53.459Z,26.63
2019-04-07T03:58:44.459Z,26.93
2019-04-07T04:01:41.646Z,25.63
2019-04-07T04:04:48.954Z,24.47
2019-04-07T04:07:34.582Z,26.70
2019-04-07T04:10:21.178Z,25.57
2019-04-07T04:13:07.051Z,25.27
2019-04-07T04:15:58.822Z,28.17
2019-04-07T04:18:32.258Z,24.87
2019-04-07T04:21:04.328Z,23.77
2019-04-07T04:23:36.399Z,25.77
2019-04-07T04:26:08.450Z,25.70
2019-04-07T04:28:40.875Z,27.37
2019-04-07T04:31:14.009Z,23.10
2019-04-07T04:33:46.369Z,24.63
2019-04-07T04:36:18.922Z,28.83
2019-04-07T04:38:52.391Z,26.23
2019-04-07T04:41:25.210Z,28.77
2019-04-07T04:43:58.027Z,24.47
2019-04-07T04:46:30.506Z,24.57
2019-04-07T04:49:02.614Z,23.80
2019-04-07T04:51:37.061Z,24.07
2019-04-07T04:54:08.481Z,24.40
2019-04-07T04:56:41.420Z,25.23
2019-04-07T04:59:13.502Z,25.90
2019-04-07T05:01:45.702Z,27.70
2019-04-07T05:04:17.837Z,26.30
2019-04-07T05:06:49.950Z,27.53
2019-04-07T05:09:23.201Z,26.70
2019-04-07T05:11:55.396Z,27.97
2019-04-07T05:14:27.537Z,28.20
2019-04-07T05:16:59.716Z,29.37
2019-04-07T05:19:32.273Z,23.97
2019-04-07T05:22:04.960Z,26.20
2019-04-07T05:24:37.607Z,26.33
2019-04-07T05:27:09.874Z,27.17
2019-04-07T05:29:41.806Z,25.97
2019-04-07T05:32:13.794Z,23.20
2019-04-07T05:34:45.788Z,26.60
2019-04-07T05:37:17.896Z,26.90
2019-04-07T05:39:50.026Z,28.20
2019-04-07T05:42:22.588Z,28.30
2019-04-07T05:44:55.174Z,25.43
2019-04-07T05:47:27.657Z,25.23
2019-04-07T05:50:03.001Z,26.80
2019-04-07T05:52:39.276Z,27.83
2019-04-07T05:55:07.936Z,25.33
2019-04-07T05:57:40.066Z,27.70
2019-04-07T06:00:16.299Z,27.30
2019-04-07T06:02:48.160Z,26.63
2019-04-07T06:05:20.198Z,29.77
2019-04-07T06:07:52.715Z,25.63
2019-04-07T06:10:28.502Z,29.33
2019-04-07T06:12:59.536Z,32.07
2019-04-07T06:15:32.408Z,31.47
2019-04-07T06:18:05.142Z,32.20
2019-04-07T06:20:37.981Z,27.67
2019-04-07T06:23:10.086Z,25.63
2019-04-07T06:25:43.660Z,29.00
2019-04-07T06:28:17.224Z,29.53
2019-04-07T06:30:52.042Z,28.33
2019-04-07T06:33:24.496Z,30.63
2019-04-07T06:35:58.154Z,30.07
2019-04-07T06:38:34.582Z,28.33
2019-04-07T06:41:04.421Z,33.43
2019-04-07T06:43:38.186Z,25.23
2019-04-07T06:46:41.276Z,25.83
2019-04-07T06:49:35.354Z,23.57
2019-04-07T06:52:34.675Z,27.77
2019-04-07T06:55:32.685Z,24.47
2019-04-07T06:58:40.816Z,24.60
2019-04-07T07:01:45.890Z,26.13
2019-04-07T07:04:36.675Z,23.17
2019-04-07T07:07:19.233Z,25.93
2019-04-07T07:10:11.428Z,24.40
2019-04-07T07:13:05.084Z,25.90
2019-04-07T07:15:52.900Z,23.33
2019-04-07T07:18:53.643Z,28.13
2019-04-07T07:21:48.968Z,24.90
2019-04-07T07:24:24.950Z,23.57
2019-04-07T07:26:57.060Z,25.87
2019-04-07T07:29:28.873Z,25.40
2019-04-07T07:32:03.798Z,27.70
2019-04-07T07:34:34.737Z,25.10
2019-04-07T07:37:06.824Z,27.40
2019-04-07T07:39:41.960Z,25.77
2019-04-07T07:42:12.164Z,25.87
2019-04-07T07:44:44.280Z,25.00
2019-04-07T07:47:19.760Z,22.93
2019-04-07T07:49:49.832Z,25.73
2019-04-07T07:52:22.023Z,25.43
2019-04-07T07:54:55.239Z,25.30
2019-04-07T07:57:27.394Z,23.60
2019-04-07T08:00:00.285Z,24.53
2019-04-07T08:02:33.210Z,24.07
2019-04-07T08:05:05.572Z,22.87
2019-04-07T08:07:37.475Z,24.67
2019-04-07T08:10:09.892Z,23.73
2019-04-07T08:12:42.154Z,25.30
2019-04-07T08:15:15.414Z,21.60
2019-04-07T08:17:47.504Z,29.43
2019-04-07T08:20:19.854Z,22.80
2019-04-07T08:22:51.972Z,23.17
2019-04-07T08:25:25.041Z,23.03
2019-04-07T08:27:58.165Z,22.67
2019-04-07T08:30:30.668Z,22.67
2019-04-07T08:33:03.454Z,20.97
2019-04-07T08:35:38.789Z,22.70
2019-04-07T08:38:09.822Z,20.23
2019-04-07T08:40:41.895Z,20.57
2019-04-07T08:43:13.834Z,21.93
2019-04-07T08:45:46.053Z,22.60
2019-04-07T08:48:20.370Z,20.60
2019-04-07T08:50:51.923Z,25.40
2019-04-07T08:53:25.038Z,19.97
2019-04-07T08:55:57.254Z,18.20
2019-04-07T08:58:33.089Z,17.40
2019-04-07T09:01:04.054Z,21.53
2019-04-07T09:03:36.064Z,21.77
2019-04-07T09:06:08.264Z,18.67
2019-04-07T09:08:40.962Z,18.07
2019-04-07T09:11:15.863Z,22.23
2019-04-07T09:13:52.904Z,19.20
2019-04-07T09:16:31.245Z,16.50
2019-04-07T09:19:25.159Z,16.17
2019-04-07T09:22:23.169Z,16.60
2019-04-07T09:25:13.710Z,20.53
2019-04-07T09:27:51.152Z,20.23
2019-04-07T09:30:39.082Z,18.37
2019-04-07T09:33:35.717Z,19.13
2019-04-07T09:36:13.401Z,15.40
2019-04-07T09:39:03.908Z,18.33
2019-04-07T09:42:02.025Z,19.83
2019-04-07T09:45:10.784Z,15.27
2019-04-07T09:48:02.127Z,15.97
2019-04-07T09:50:48.172Z,15.83
2019-04-07T09:53:40.258Z,16.03
2019-04-07T09:56:32.357Z,19.07
2019-04-07T09:59:15.118Z,15.07
2019-04-07T10:02:01.182Z,15.03
2019-04-07T10:04:58.337Z,14.60
2019-04-07T10:07:48.883Z,18.50
2019-04-07T10:10:52.608Z,16.33
2019-04-07T10:13:44.135Z,15.77
2019-04-07T10:16:35.132Z,14.70
2019-04-07T10:19:15.633Z,15.30
2019-04-07T10:22:07.310Z,15.73
2019-04-07T10:25:04.414Z,12.43
2019-04-07T10:27:55.500Z,15.00
2019-04-07T10:30:50.250Z,12.77
2019-04-07T10:33:47.208Z,11.43
2019-04-07T10:36:36.320Z,13.53
2019-04-07T10:39:34.926Z,13.00
2019-04-07T10:42:25.036Z,12.73
2019-04-07T10:45:26.938Z,12.73
2019-04-07T10:48:18.030Z,15.80
2019-04-07T10:51:18.437Z,17.23
2019-04-07T10:54:18.877Z,13.17
2019-04-07T10:57:13.162Z,14.60
2019-04-07T11:00:00.083Z,15.30
2019-04-07T11:02:55.926Z,13.50
2019-04-07T11:05:50.372Z,13.07
2019-04-07T11:08:49.066Z,13.23
2019-04-07T11:11:48.107Z,12.70
2019-04-07T11:14:39.355Z,13.13
2019-04-07T11:17:21.533Z,14.17
2019-04-07T11:20:01.523Z,11.63
2019-04-07T11:22:52.044Z,14.90
2019-04-07T11:25:33.700Z,11.10
2019-04-07T11:28:16.553Z,13.20
2019-04-07T11:31:01.530Z,10.83
2019-04-07T11:33:52.520Z,13.27
2019-04-07T11:36:43.231Z,10.93
2019-04-07T11:39:37.454Z,13.27
2019-04-07T11:42:31.640Z,13.13
2019-04-07T11:45:19.449Z,9.70
2019-04-07T11:48:17.599Z,10.73
2019-04-07T11:51:00.142Z,10.50
2019-04-07T11:53:59.844Z,14.03
2019-04-07T11:57:09.670Z,12.93
2019-04-07T12:00:07.527Z,15.07
2019-04-07T12:02:51.847Z,13.43
2019-04-07T12:05:33.356Z,13.93
2019-04-07T12:08:17.488Z,12.83
2019-04-07T12:11:07.590Z,11.37
2019-04-07T12:14:01.766Z,11.87
2019-04-07T12:16:53.489Z,11.07
2019-04-07T12:19:36.783Z,12.00
2019-04-07T12:22:34.132Z,14.10
2019-04-07T12:25:22.324Z,15.70
2019-04-07T12:28:18.894Z,11.13
2019-04-07T12:31:10.174Z,14.37
2019-04-07T12:33:58.432Z,13.27
2019-04-07T12:36:49.706Z,12.50
2019-04-07T12:39:36.060Z,10.33
2019-04-07T12:42:22.474Z,12.53
2019-04-07T12:45:16.910Z,10.30
2019-04-07T12:48:04.714Z,12.70
2019-04-07T12:51:03.156Z,11.47
2019-04-07T12:53:55.302Z,12.93
2019-04-07T12:56:41.304Z,11.57
2019-04-07T12:59:50.136Z,16.53
2019-04-07T13:02:32.634Z,13.57
2019-04-07T13:05:39.307Z,10.57
2019-04-07T13:08:29.199Z,11.57
2019-04-07T13:11:10.652Z,11.47
2019-04-07T13:14:08.162Z,13.03
2019-04-07T13:17:05.606Z,12.40
2019-04-07T13:20:00.811Z,13.00
2019-04-07T13:22:55.234Z,11.50
2019-04-07T13:25:55.015Z,11.67
2019-04-07T13:28:44.529Z,14.17
2019-04-07T13:31:25.717Z,13.53
2019-04-07T13:34:12.908Z,11.70
2019-04-07T13:37:01.208Z,14.37
2019-04-07T13:39:54.574Z,13.67
2019-04-07T13:42:34.267Z,13.47
2019-04-07T13:45:22.763Z,11.27
2019-04-07T13:48:17.573Z,10.63
2019-04-07T13:51:07.561Z,14.67
2019-04-07T13:54:12.393Z,11.77
2019-04-07T13:57:12.361Z,13.83
2019-04-07T14:00:16.278Z,12.43
2019-04-07T14:03:11.299Z,14.03
2019-04-07T14:06:05.258Z,13.67
2019-04-07T14:09:00.029Z,13.17
2019-04-07T14:11:57.225Z,13.97
2019-04-07T14:14:48.373Z,10.70
2019-04-07T14:17:40.977Z,13.37
2019-04-07T14:20:31.431Z,14.50
2019-04-07T14:23:12.177Z,14.90
2019-04-07T14:25:58.863Z,12.77
2019-04-07T14:28:50.074Z,12.63
2019-04-07T14:31:40.165Z,13.30
2019-04-07T14:34:43.621Z,13.37
2019-04-07T14:37:31.849Z,14.03
2019-04-07T14:40:29.195Z,12.40
2019-04-07T14:43:16.979Z,10.67
2019-04-07T14:46:23.993Z,12.80
2019-04-07T14:49:13.432Z,17.07
2019-04-07T14:52:03.690Z,13.27
2019-04-07T14:57:50.246Z,14.10
2019-04-07T15:00:50.889Z,13.93
2019-04-07T15:03:23.458Z,12.33
2019-04-07T15:05:57.979Z,16.17
2019-04-07T15:08:35.586Z,12.83
2019-04-07T15:11:27.006Z,13.30
2019-04-07T15:14:00.658Z,13.90
2019-04-07T15:16:33.989Z,15.67
2019-04-07T15:19:06.558Z,16.23
2019-04-07T15:21:38.631Z,13.40
2019-04-07T15:24:11.251Z,13.97
2019-04-07T15:26:46.945Z,15.87
2019-04-07T15:29:17.360Z,14.63
2019-04-07T15:31:51.037Z,13.07
2019-04-07T15:34:23.070Z,15.73
2019-04-07T15:36:55.720Z,16.50
2019-04-07T15:39:29.611Z,13.87
2019-04-07T15:42:02.111Z,16.17
2019-04-07T15:44:34.665Z,14.43
2019-04-07T15:47:07.270Z,12.07
2019-04-07T15:49:39.916Z,13.07
2019-04-07T15:52:12.102Z,16.17
2019-04-07T15:54:44.227Z,13.63
2019-04-07T15:57:20.262Z,12.57
2019-04-07T15:59:50.604Z,19.37
2019-04-07T16:02:23.568Z,15.93
2019-04-07T16:04:59.253Z,12.27
2019-04-07T16:07:29.540Z,15.23
2019-04-07T16:10:01.921Z,12.67
2019-04-07T16:12:43.686Z,14.17
2019-04-07T16:15:08.247Z,13.87
2019-04-07T16:17:42.034Z,15.87
2019-04-07T16:20:23.094Z,14.40
2019-04-07T16:22:51.404Z,14.40
2019-04-07T16:25:27.498Z,13.53
2019-04-07T16:27:58.690Z,15.70
2019-04-07T16:30:30.877Z,17.07
2019-04-07T16:33:05.185Z,15.10
2019-04-07T16:35:36.871Z,17.93
2019-04-07T16:38:09.531Z,17.47
2019-04-07T16:40:42.421Z,15.47
2019-04-07T16:43:17.754Z,15.53
2019-04-07T16:45:49.418Z,18.67
2019-04-07T16:48:21.353Z,14.07
2019-04-07T16:50:55.285Z,16.27
2019-04-07T16:53:28.105Z,14.80
2019-04-07T16:56:00.925Z,14.73
2019-04-07T16:58:35.319Z,20.23
2019-04-07T17:01:31.702Z,15.27
2019-04-07T17:04:06.380Z,13.00
2019-04-07T17:07:01.672Z,13.37
2019-04-07T17:09:34.550Z,12.17
2019-04-07T17:12:11.613Z,15.20
2019-04-07T17:15:00.214Z,14.73
2019-04-07T17:17:33.480Z,15.20
2019-04-07T17:20:11.323Z,15.53
2019-04-07T17:22:56.992Z,15.07
2019-04-07T17:25:33.172Z,19.37
2019-04-07T17:28:06.536Z,16.57
2019-04-07T17:30:39.519Z,17.77
2019-04-07T17:33:12.341Z,16.60
2019-04-07T17:35:45.239Z,19.13
2019-04-07T17:38:20.311Z,20.50
2019-04-07T17:40:53.301Z,15.27
2019-04-07T17:43:46.541Z,16.07
2019-04-07T17:46:29.659Z,16.50
2019-04-07T17:49:32.166Z,18.10
2019-04-07T17:52:15.651Z,14.10
2019-04-07T17:55:25.259Z,19.67
2019-04-07T17:58:13.001Z,15.80
2019-04-07T18:01:09.873Z,15.90
2019-04-07T18:04:03.771Z,22.73
2019-04-07T18:06:54.906Z,19.73
2019-04-07T18:09:53.257Z,22.30
2019-04-07T18:12:55.599Z,14.93
2019-04-07T18:15:39.074Z,13.23
2019-04-07T18:18:24.017Z,19.83
2019-04-07T18:21:18.120Z,16.10
2019-04-07T18:24:01.249Z,16.30
2019-04-07T18:26:40.464Z,17.17
2019-04-07T18:29:32.205Z,15.60
2019-04-07T18:32:20.818Z,16.57
2019-04-07T18:35:15.227Z,21.13
2019-04-07T18:37:57.843Z,14.93
2019-04-07T18:40:42.913Z,22.87
2019-04-07T18:43:51.977Z,23.70
2019-04-07T18:46:35.493Z,16.27
2019-04-07T18:49:32.967Z,21.73
2019-04-07T18:52:25.733Z,20.10
2019-04-07T18:55:16.038Z,26.90
2019-04-07T18:58:04.863Z,25.07
2019-04-07T19:01:08.643Z,31.53
2019-04-07T19:03:48.603Z,24.80
2019-04-07T19:06:42.175Z,21.20
2019-04-07T19:09:39.095Z,23.83
2019-04-07T19:12:31.293Z,25.53
2019-04-07T19:15:17.841Z,22.27
2019-04-07T19:18:11.934Z,24.53
2019-04-07T19:21:01.061Z,23.53
2019-04-07T19:24:09.892Z,18.40
2019-04-07T19:27:13.421Z,21.23
2019-04-07T19:29:54.257Z,20.50
2019-04-07T19:32:54.301Z,24.70
2019-04-07T19:35:46.744Z,29.77
2019-04-07T19:38:29.762Z,34.00
2019-04-07T19:41:16.766Z,37.73
2019-04-07T19:44:00.545Z,24.97
2019-04-07T19:47:06.619Z,36.20
2019-04-07T19:50:12.215Z,28.63
2019-04-07T19:53:12.906Z,27.23
2019-04-07T19:56:20.880Z,23.10
2019-04-07T19:59:11.490Z,32.23
2019-04-07T20:02:03.595Z,32.40
2019-04-07T20:04:53.561Z,26.30
2019-04-07T20:07:44.101Z,28.13
2019-04-07T20:10:30.008Z,24.97
2019-04-07T20:13:28.222Z,20.53
2019-04-07T20:16:18.042Z,23.40
2019-04-07T20:19:18.752Z,20.40
2019-04-07T20:22:03.245Z,22.90
2019-04-07T20:24:53.069Z,24.97
2019-04-07T20:27:44.873Z,21.13
2019-04-07T20:30:35.853Z,20.00
2019-04-07T20:33:29.769Z,20.27
2019-04-07T20:36:28.128Z,22.20
2019-04-07T20:39:22.214Z,27.50
2019-04-07T20:42:03.097Z,29.07
2019-04-07T20:45:06.541Z,34.03
2019-04-07T20:48:01.271Z,33.27
2019-04-07T20:50:50.696Z,30.37
2019-04-07T20:53:32.123Z,26.17
2019-04-07T20:56:22.848Z,32.30
2019-04-07T20:59:08.616Z,31.77
2019-04-07T21:02:03.298Z,38.70
2019-04-07T21:04:54.948Z,35.13
2019-04-07T21:07:57.807Z,32.30
2019-04-07T21:10:53.897Z,31.33
2019-04-07T21:13:59.324Z,23.13
2019-04-07T21:16:50.978Z,26.10
2019-04-07T21:19:42.266Z,28.33
2019-04-07T21:22:33.516Z,45.17
2019-04-07T21:25:25.212Z,31.40
2019-04-07T21:28:22.884Z,34.77
2019-04-07T21:31:20.404Z,38.57
2019-04-07T21:34:28.556Z,39.50
2019-04-07T21:37:22.984Z,41.83
2019-04-07T21:40:08.427Z,36.07
2019-04-07T21:43:09.255Z,38.63
2019-04-07T21:46:03.393Z,41.57
2019-04-07T21:48:55.043Z,41.57
2019-04-07T21:51:53.053Z,43.90
2019-04-07T21:54:44.175Z,48.53
2019-04-07T21:57:26.743Z,53.87
2019-04-07T22:00:16.742Z,52.93
2019-04-07T22:03:16.756Z,57.40
2019-04-07T22:06:01.049Z,70.70
2019-04-07T22:08:52.680Z,60.57
2019-04-07T22:11:28.145Z,72.80
2019-04-07T22:13:58.419Z,63.70
2019-04-07T22:16:32.487Z,57.93
2019-04-07T22:19:04.385Z,59.73
2019-04-07T22:21:36.314Z,53.90
2019-04-07T22:24:08.932Z,53.50
2019-04-07T22:26:41.172Z,52.83
2019-04-07T22:29:13.377Z,55.93
2019-04-07T22:31:49.317Z,53.53
2019-04-07T22:34:22.649Z,45.57
2019-04-07T22:36:55.790Z,47.33
2019-04-07T22:39:29.788Z,45.60
2019-04-07T22:42:02.238Z,46.13
2019-04-07T22:44:34.323Z,51.03
2019-04-07T22:47:07.078Z,47.07
2019-04-07T22:49:39.112Z,42.77
2019-04-07T22:52:11.779Z,54.53
2019-04-07T22:54:44.287Z,40.10
2019-04-07T22:57:16.402Z,48.43
2019-04-07T22:59:48.689Z,45.40
2019-04-07T23:02:20.973Z,49.20
2019-04-07T23:04:53.163Z,45.70
2019-04-07T23:07:25.495Z,42.57
2019-04-07T23:09:57.976Z,41.17
2019-04-07T23:12:29.961Z,45.50
2019-04-07T23:15:02.008Z,50.23
2019-04-07T23:17:34.443Z,45.37
2019-04-07T23:20:07.126Z,49.20
2019-04-07T23:22:39.023Z,39.83
2019-04-07T23:25:12.013Z,44.40
2019-04-07T23:27:44.193Z,40.70
2019-04-07T23:30:17.956Z,42.00
2019-04-07T23:32:50.057Z,39.57
2019-04-07T23:35:22.261Z,41.47
2019-04-07T23:37:55.246Z,44.10
2019-04-07T23:40:28.079Z,38.33
2019-04-07T23:43:00.627Z,45.43
2019-04-07T23:45:33.522Z,42.93
2019-04-07T23:48:06.847Z,47.47
2019-04-07T23:50:39.186Z,48.47
2019-04-07T23:53:47.082Z,60.73
2019-04-07T23:56:19.788Z,53.20
2019-04-07T23:58:52.076Z,57.20
